Time;durP1;ratioP1;P1;durP2;ratioP2;P2;SDS_P1;SDS_P2;PMS_P1;PMS_P2;Temp;Humidity;BMP_temperature;BMP_pressure;BME280_temperature;BME280_humidity;BME280_pressure;Samples;Min_cycle;Max_cycle;Signal;HPM_P1;HPM_P2
2024/03/06 06:56:30;;;;;;;;;;;;;;;1.07;100.00;100879.77;1808218;78;20106;-78
2024/03/06 06:59:11;;;;;;;;;;;;;;;1.12;100.00;100890.01;1715505;82;20100;-82
2024/03/06 07:01:44;;;;;;;;;;;;;;;1.17;100.00;100867.77;1738881;78;20139;-79
2024/03/06 07:04:20;;;;;;;;;;;;;;;1.24;100.00;100889.94;1835405;77;20135;-77
2024/03/06 07:07:13;;;;;;;;;;;;;;;1.29;100.00;100892.91;1824265;77;20110;-77
2024/03/06 08:51:42;;;;;;;;;;;;;;;2.44;85.78;100949.93;1824450;77;20145;-73
2024/03/06 08:54:10;;;;;;;;;;;;;;;2.48;84.05;100965.32;1836184;77;20439;-77
2024/03/06 08:56:37;;;;;;;;;;;;;;;2.36;83.96;100973.15;1826589;77;20092;-75
2024/03/06 08:59:03;;;;;;;;;;;;;;;2.25;84.18;100962.95;1830919;77;20127;-72
2024/03/06 09:01:32;;;;;;;;;;;;;;;2.21;84.19;100961.25;1833196;77;20131;-73
2024/03/06 09:04:03;;;;;;;;;;;;;;;2.21;85.34;100976.67;1826831;77;20156;-74
2024/03/06 09:06:30;;;;;;;;;;;;;;;2.23;84.85;100977.52;1831919;77;20393;-73
2024/03/06 09:08:56;;;;;;;;;;;;;;;2.26;85.18;100962.08;1836028;77;20129;-72
2024/03/06 09:11:22;;;;;;;;;;;;;;;2.35;85.20;100974.02;1833119;77;20118;-73
2024/03/06 09:13:49;;;;;;;;;;;;;;;2.36;83.92;100958.16;1838102;77;20451;-71
2024/03/06 09:16:15;;;;;;;;;;;;;;;2.32;84.40;100965.04;1821732;79;20128;-72
2024/03/06 09:18:42;;;;;;;;;;;;;;;2.33;85.58;100967.59;1798918;79;20135;-72
2024/03/06 09:21:09;;;;;;;;;;;;;;;2.38;84.32;100971.42;1820960;77;20114;-73
2024/03/06 09:23:35;;;;;;;;;;;;;;;2.45;84.37;100979.91;1831495;77;20389;-72
2024/03/06 09:26:04;;;;;;;;;;;;;;;2.46;84.07;100976.05;1823590;77;20089;-71
2024/03/06 09:28:36;;;;;;;;;;;;;;;2.45;83.82;100974.34;1827981;77;20092;-73
2024/03/06 09:31:03;;;;;;;;;;;;;;;2.44;83.47;100974.34;1821357;77;20094;-71
2024/03/06 09:33:30;;;;;;;;;;;;;;;2.46;84.04;100977.33;1823310;77;20133;-74
2024/03/06 09:36:02;;;;;;;;;;;;;;;2.48;84.01;100973.46;1833665;77;20108;-70
2024/03/06 09:38:29;;;;;;;;;;;;;;;2.40;84.72;100994.08;1842076;77;20127;-70
2024/03/06 09:40:56;;;;;;;;;;;;;;;2.34;85.31;100983.88;1854434;77;20092;-71
2024/03/06 09:43:24;;;;;;;;;;;;;;;2.38;84.71;100988.56;1838260;77;20163;-73
2024/03/06 11:45:22;;;;;;;;;;;;;;;2.64;80.99;100982.33;1781514;77;20387;-73
2024/03/06 11:48:00;;;;;;;;;;;;;;;2.63;80.08;100992.63;1820639;79;20118;-74
2024/03/06 11:50:31;;;;;;;;;;;;;;;2.59;80.64;100986.66;1819993;79;20137;-74
2024/03/06 11:52:55;;;;;;;;;;;;;;;2.53;81.71;100995.70;1819094;79;20102;-73
2024/03/06 11:55:25;;;;;;;;;;;;;;;2.46;82.16;100997.89;1798557;79;20118;-73
2024/03/06 11:57:53;;;;;;;;;;;;;;;2.41;82.43;100988.08;1821007;79;20231;-74
2024/03/06 12:00:23;;;;;;;;;;;;;;;2.41;82.36;101013.78;1821076;79;20133;-73
2024/03/06 12:02:51;;;;;;;;;;;;;;;2.34;82.13;101007.00;1821459;79;20109;-73
2024/03/06 12:05:18;;;;;;;;;;;;;;;2.28;81.85;101000.61;1789759;79;20120;-73
2024/03/06 12:07:51;;;;;;;;;;;;;;;2.20;82.72;100999.37;1765887;80;20136;-74
2024/03/06 12:28:09;;;;;;;;;;;;;;;1.95;85.29;100997.41;1799165;79;20102;-76
2024/03/06 12:30:42;;;;;;;;;;;;;;;1.90;85.92;100995.28;1809256;79;20239;-73
2024/03/06 12:33:09;;;;;;;;;;;;;;;1.88;85.76;100991.88;1790827;79;20459;-78
2024/03/06 12:35:42;;;;;;;;;;;;;;;1.89;86.43;100999.15;1796823;79;20100;-76
2024/03/06 12:38:15;;;;;;;;;;;;;;;1.88;87.32;101000.86;1795551;79;20126;-78
2024/03/06 12:40:42;;;;;;;;;;;;;;;1.91;87.03;100993.14;1805366;79;20569;-75
2024/03/06 12:43:08;;;;;;;;;;;;;;;1.95;86.22;100984.56;1801649;79;20114;-77
2024/03/06 12:45:36;;;;;;;;;;;;;;;2.00;86.12;100984.50;1809556;79;20095;-74
2024/03/06 12:48:07;;;;;;;;;;;;;;;2.03;85.63;100987.48;1805630;79;20130;-74
2024/03/06 12:50:35;;;;;;;;;;;;;;;1.99;85.05;100981.11;1805439;79;20110;-76
2024/03/06 12:53:04;;;;;;;;;;;;;;;1.99;85.33;100989.25;1803508;79;20388;-76
2024/03/06 12:55:31;;;;;;;;;;;;;;;2.00;85.32;100983.22;1804731;79;20157;-75
2024/03/06 12:57:58;;;;;;;;;;;;;;;2.02;85.01;100985.34;1807291;79;20106;-75
2024/03/06 13:00:26;;;;;;;;;;;;;;;2.03;85.78;100979.78;1812594;79;20389;-77
2024/03/06 13:02:53;;;;;;;;;;;;;;;2.05;85.77;100984.05;1815710;79;20395;-72
2024/03/06 13:05:20;;;;;;;;;;;;;;;2.07;84.88;100979.75;1844159;77;20432;-72
2024/03/06 13:07:46;;;;;;;;;;;;;;;2.05;84.83;100977.62;1822743;77;20106;-77
2024/03/06 13:48:36;;;;;;;;;;;;;;;1.72;85.33;100990.66;1799768;79;20106;-75
2024/03/06 13:51:03;;;;;;;;;;;;;;;1.70;85.20;101010.35;1821520;77;20482;-73
2024/03/06 13:53:30;;;;;;;;;;;;;;;1.65;84.91;100987.27;1825886;77;20157;-73
2024/03/06 13:55:57;;;;;;;;;;;;;;;1.62;84.63;100997.11;1821294;79;20121;-76
2024/03/06 13:58:23;;;;;;;;;;;;;;;1.56;84.77;100996.31;1831304;77;20092;-75
2024/03/06 14:00:53;;;;;;;;;;;;;;;1.53;84.66;101002.73;1854334;77;20174;-75
2024/03/06 14:03:25;;;;;;;;;;;;;;;1.50;85.26;101004.03;1834914;77;20225;-76
2024/03/06 14:05:54;;;;;;;;;;;;;;;1.50;85.51;101007.88;1857505;77;20103;-76
2024/03/06 14:08:22;;;;;;;;;;;;;;;1.50;85.67;101011.30;1846759;78;20441;-76
2024/03/06 14:10:49;;;;;;;;;;;;;;;1.45;85.48;101013.03;1814181;78;20378;-75
2024/03/06 14:13:15;;;;;;;;;;;;;;;1.39;86.40;101009.20;1842215;78;20088;-76
2024/03/06 14:15:41;;;;;;;;;;;;;;;1.35;86.12;101012.63;1836765;78;20085;-75
2024/03/06 14:18:08;;;;;;;;;;;;;;;1.32;86.09;101017.77;1835963;78;20393;-76
2024/03/06 14:20:35;;;;;;;;;;;;;;;1.28;84.78;101019.48;1800579;78;20100;-76
2024/03/06 14:23:01;;;;;;;;;;;;;;;1.21;83.97;101015.64;1801447;79;20098;-78
2024/03/06 14:25:29;;;;;;;;;;;;;;;1.12;84.48;101008.85;1798970;79;20106;-76
2024/03/06 14:28:12;;;;;;;;;;;;;;;1.09;84.83;101027.23;1776791;80;20169;-75
2024/03/06 14:30:57;;;;;;;;;;;;;;;1.06;83.85;101021.69;1755928;81;20112;-76
2024/03/06 14:33:25;;;;;;;;;;;;;;;1.00;84.20;101013.99;1725165;83;20145;-75
2024/03/06 14:35:53;;;;;;;;;;;;;;;0.95;84.54;101015.28;1741391;81;20130;-73
2024/03/06 14:38:22;;;;;;;;;;;;;;;0.94;85.07;101016.56;1723979;83;20198;-76
2024/03/06 14:41:07;;;;;;;;;;;;;;;0.94;85.39;101005.88;1748593;80;20120;-75
2024/03/06 14:43:45;;;;;;;;;;;;;;;0.95;86.01;101006.73;1745354;81;20123;-78
2024/03/06 14:46:12;;;;;;;;;;;;;;;0.95;85.87;101014.00;1750578;79;20137;-72
2024/03/06 14:48:41;;;;;;;;;;;;;;;0.94;86.68;101003.73;1770928;81;20125;-77
2024/03/06 14:51:09;;;;;;;;;;;;;;;0.95;87.15;101004.17;1740121;81;20158;-77
2024/03/06 14:53:35;;;;;;;;;;;;;;;0.99;87.18;101011.86;1757797;81;20097;-78
2024/03/06 14:56:02;;;;;;;;;;;;;;;1.01;86.81;101006.73;1760665;81;20402;-77
2024/03/06 14:58:29;;;;;;;;;;;;;;;1.00;86.99;101007.16;1756200;80;20129;-76
2024/03/06 15:00:55;;;;;;;;;;;;;;;1.02;87.73;101013.99;1777045;81;20386;-74
2024/03/06 15:03:22;;;;;;;;;;;;;;;1.03;87.75;101009.29;1769571;81;20138;-75
2024/03/06 15:05:49;;;;;;;;;;;;;;;1.03;87.74;101013.99;1745767;81;20167;-77
